Time;durP1;ratioP1;P1;durP2;ratioP2;P2;SDS_P1;SDS_P2;PMS_P1;PMS_P2;Temp;Humidity;BMP_temperature;BMP_pressure;BME280_temperature;BME280_humidity;BME280_pressure;Samples;Min_cycle;Max_cycle;Signal;HPM_P1;HPM_P2
2023/09/03 00:02:06;;;;;;;3.15;0.98;;;;;;;;;;5123123;28;20227;-72
2023/09/03 00:04:33;;;;;;;2.92;1.05;;;;;;;;;;5123024;28;20047;-76
2023/09/03 00:06:59;;;;;;;1.52;1.00;;;;;;;;;;5123047;28;20043;-75
2023/09/03 00:09:26;;;;;;;2.15;0.93;;;;;;;;;;5122374;28;20266;-75
2023/09/03 00:11:52;;;;;;;1.75;1.00;;;;;;;;;;5122880;28;20047;-75
2023/09/03 00:14:20;;;;;;;3.63;1.30;;;;;;;;;;5122598;28;20043;-73
2023/09/03 00:16:46;;;;;;;1.80;0.95;;;;;;;;;;5123160;28;20043;-72
2023/09/03 00:19:13;;;;;;;2.63;1.10;;;;;;;;;;5122480;28;20362;-74
2023/09/03 00:21:40;;;;;;;2.08;0.90;;;;;;;;;;5122753;28;20290;-73
2023/09/03 00:24:06;;;;;;;1.75;0.95;;;;;;;;;;5122324;28;20050;-75
2023/09/03 00:26:33;;;;;;;4.95;0.90;;;;;;;;;;5122693;28;20449;-75
2023/09/03 00:29:00;;;;;;;1.80;1.00;;;;;;;;;;5122383;28;20324;-75
2023/09/03 00:31:26;;;;;;;4.40;1.20;;;;;;;;;;5122612;28;20454;-75
2023/09/03 00:33:53;;;;;;;2.05;1.20;;;;;;;;;;5122523;28;20044;-74
2023/09/03 00:36:20;;;;;;;1.83;0.90;;;;;;;;;;5122316;28;20228;-74
2023/09/03 00:38:50;;;;;;;1.67;1.00;;;;;;;;;;5122311;28;20044;-75
2023/09/03 00:41:17;;;;;;;3.53;1.13;;;;;;;;;;5122794;28;20054;-75
2023/09/03 00:43:43;;;;;;;1.70;1.00;;;;;;;;;;5122542;28;20043;-75
2023/09/03 00:46:10;;;;;;;3.03;1.10;;;;;;;;;;5122529;28;20051;-72
2023/09/03 00:48:38;;;;;;;2.60;1.33;;;;;;;;;;5122077;28;20189;-71
2023/09/03 00:51:08;;;;;;;4.38;1.35;;;;;;;;;;5122019;28;20298;-74
2023/09/03 00:53:37;;;;;;;2.45;1.20;;;;;;;;;;5121611;28;20044;-72
2023/09/03 00:56:07;;;;;;;3.50;0.93;;;;;;;;;;5122235;28;20092;-74
2023/09/03 00:58:35;;;;;;;2.43;0.97;;;;;;;;;;5122337;28;20090;-75
2023/09/03 01:01:04;;;;;;;3.83;1.30;;;;;;;;;;5122052;28;20289;-72
2023/09/03 01:03:32;;;;;;;3.45;1.00;;;;;;;;;;5122100;28;20055;-75
2023/09/03 01:05:59;;;;;;;1.88;1.00;;;;;;;;;;5121673;28;20297;-72
2023/09/03 01:08:26;;;;;;;1.92;0.95;;;;;;;;;;5121415;28;20048;-72
2023/09/03 01:11:11;;;;;;;2.20;1.10;;;;;;;;;;5121385;28;20082;-73
2023/09/03 01:13:47;;;;;;;1.95;0.75;;;;;;;;;;5121819;28;20398;-75
2023/09/03 01:16:53;;;;;;;3.83;1.10;;;;;;;;;;5121788;28;20043;-72
2023/09/03 01:19:20;;;;;;;3.17;1.00;;;;;;;;;;5087003;28;20055;-74
2023/09/03 01:22:05;;;;;;;2.83;1.10;;;;;;;;;;5121867;28;20043;-75
2023/09/03 01:25:13;;;;;;;2.35;1.10;;;;;;;;;;5120945;28;20106;-76
2023/09/03 01:27:50;;;;;;;3.00;1.00;;;;;;;;;;5100808;28;20073;-75
2023/09/03 01:30:18;;;;;;;1.63;1.10;;;;;;;;;;5121162;28;20050;-73
2023/09/03 01:32:47;;;;;;;1.45;0.77;;;;;;;;;;5121563;28;20043;-75
2023/09/03 01:35:14;;;;;;;2.20;1.00;;;;;;;;;;5121481;28;20048;-74
2023/09/03 01:37:41;;;;;;;1.67;0.90;;;;;;;;;;5121031;28;20270;-75
2023/09/03 01:40:09;;;;;;;1.77;1.00;;;;;;;;;;5121159;28;20039;-74
2023/09/03 01:42:36;;;;;;;1.58;0.90;;;;;;;;;;5121499;28;20043;-72
2023/09/03 01:45:03;;;;;;;1.90;1.00;;;;;;;;;;5121079;28;20458;-76
2023/09/03 01:47:42;;;;;;;1.92;1.02;;;;;;;;;;5121134;28;20370;-75
2023/09/03 01:50:12;;;;;;;1.10;0.80;;;;;;;;;;5121418;28;20057;-75
2023/09/03 01:53:04;;;;;;;1.80;0.95;;;;;;;;;;5120887;28;20089;-74
2023/09/03 01:55:35;;;;;;;2.83;1.10;;;;;;;;;;5121067;28;20047;-75
2023/09/03 01:58:07;;;;;;;2.22;1.10;;;;;;;;;;5121487;28;20065;-75
2023/09/03 02:00:34;;;;;;;2.60;1.17;;;;;;;;;;5121041;28;20044;-75
2023/09/03 02:03:02;;;;;;;2.08;1.13;;;;;;;;;;5121203;28;20089;-72
2023/09/03 02:05:29;;;;;;;3.72;1.20;;;;;;;;;;5120389;28;20051;-75
2023/09/03 02:07:56;;;;;;;1.65;0.95;;;;;;;;;;5120684;28;20351;-75
2023/09/03 02:10:22;;;;;;;1.80;1.10;;;;;;;;;;5120719;28;20044;-75
2023/09/03 02:12:49;;;;;;;2.00;1.00;;;;;;;;;;5121030;28;20043;-75
2023/09/03 02:15:15;;;;;;;2.00;1.13;;;;;;;;;;5120827;28;20370;-75
2023/09/03 02:17:42;;;;;;;2.17;1.00;;;;;;;;;;5121224;28;20047;-75
2023/09/03 02:20:09;;;;;;;3.55;1.10;;;;;;;;;;5120958;28;20047;-74
2023/09/03 02:22:36;;;;;;;3.75;1.27;;;;;;;;;;5120451;28;20043;-75
2023/09/03 02:25:03;;;;;;;1.65;1.00;;;;;;;;;;5120684;28;20043;-73
2023/09/03 02:27:29;;;;;;;2.38;1.20;;;;;;;;;;5120943;28;20052;-72
2023/09/03 02:29:56;;;;;;;1.77;1.10;;;;;;;;;;5121056;28;20043;-75
2023/09/03 02:32:22;;;;;;;3.78;1.10;;;;;;;;;;5120942;28;20043;-74
2023/09/03 02:34:49;;;;;;;1.85;1.20;;;;;;;;;;5120736;28;20051;-72
2023/09/03 02:37:16;;;;;;;2.60;1.15;;;;;;;;;;5120995;28;20035;-72
2023/09/03 02:39:42;;;;;;;2.60;1.17;;;;;;;;;;5120163;28;20115;-75
2023/09/03 02:42:09;;;;;;;3.42;1.15;;;;;;;;;;5129131;28;20051;-72
2023/09/03 02:44:36;;;;;;;1.50;0.90;;;;;;;;;;5141311;28;20288;-75
2023/09/03 02:47:02;;;;;;;2.05;1.20;;;;;;;;;;5141303;28;20099;-75
2023/09/03 02:49:29;;;;;;;5.13;1.40;;;;;;;;;;5141395;28;20055;-73
2023/09/03 02:51:56;;;;;;;3.55;1.13;;;;;;;;;;5140853;28;20052;-75
2023/09/03 02:54:22;;;;;;;1.95;1.08;;;;;;;;;;5140747;28;20044;-75
2023/09/03 02:56:49;;;;;;;2.80;1.30;;;;;;;;;;5141159;28;20412;-72
2023/09/03 02:59:16;;;;;;;2.70;1.30;;;;;;;;;;5141239;28;20047;-75
2023/09/03 03:01:43;;;;;;;3.78;1.20;;;;;;;;;;5141004;28;20141;-75
2023/09/03 03:04:09;;;;;;;3.33;1.23;;;;;;;;;;5140843;28;20051;-75
2023/09/03 03:06:36;;;;;;;2.20;1.20;;;;;;;;;;5141093;28;20110;-75
2023/09/03 03:09:04;;;;;;;3.90;1.23;;;;;;;;;;5140795;28;20050;-75
2023/09/03 03:11:31;;;;;;;2.50;1.10;;;;;;;;;;5140785;28;20047;-77
2023/09/03 03:13:58;;;;;;;1.75;1.10;;;;;;;;;;5140152;28;20175;-75
2023/09/03 03:16:24;;;;;;;2.28;1.10;;;;;;;;;;5141419;27;20043;-75
2023/09/03 03:18:52;;;;;;;2.92;1.30;;;;;;;;;;5144470;27;20050;-76
2023/09/03 03:21:19;;;;;;;3.33;1.40;;;;;;;;;;5144644;27;20043;-75
2023/09/03 03:23:47;;;;;;;3.70;1.45;;;;;;;;;;5144119;27;20043;-75
2023/09/03 03:26:14;;;;;;;2.25;1.23;;;;;;;;;;5144267;27;20051;-75
2023/09/03 03:28:41;;;;;;;1.73;1.13;;;;;;;;;;5144577;27;20050;-75
2023/09/03 03:31:09;;;;;;;3.45;1.20;;;;;;;;;;5143958;27;20047;-72
2023/09/03 03:33:36;;;;;;;3.42;1.40;;;;;;;;;;5144252;27;20051;-73
2023/09/03 03:36:04;;;;;;;1.98;1.10;;;;;;;;;;5144294;27;20127;-75
2023/09/03 03:38:31;;;;;;;3.75;1.40;;;;;;;;;;5143656;27;20370;-74
2023/09/03 03:41:11;;;;;;;3.53;1.50;;;;;;;;;;5144179;27;20059;-74
2023/09/03 03:43:40;;;;;;;1.83;1.10;;;;;;;;;;5144188;27;20046;-75
2023/09/03 03:46:07;;;;;;;2.42;1.20;;;;;;;;;;5143967;27;20091;-75
2023/09/03 03:48:34;;;;;;;3.45;1.27;;;;;;;;;;5144321;27;20053;-75
2023/09/03 03:51:02;;;;;;;3.13;1.30;;;;;;;;;;5143950;27;20051;-75
2023/09/03 03:53:29;;;;;;;1.73;1.23;;;;;;;;;;5143616;27;20047;-72
2023/09/03 03:55:57;;;;;;;2.60;1.30;;;;;;;;;;5143911;27;20082;-72
2023/09/03 03:58:25;;;;;;;2.78;1.20;;;;;;;;;;5143779;27;20338;-75
2023/09/03 04:00:52;;;;;;;2.00;1.10;;;;;;;;;;5143937;27;20071;-74
2023/09/03 04:03:18;;;;;;;2.10;1.10;;;;;;;;;;5143930;27;20103;-75
2023/09/03 04:05:45;;;;;;;2.00;1.17;;;;;;;;;;5143332;27;20058;-74
2023/09/03 04:08:12;;;;;;;2.80;1.27;;;;;;;;;;5139905;27;20074;-75
2023/09/03 04:10:38;;;;;;;3.33;1.40;;;;;;;;;;5143532;27;20106;-74
2023/09/03 04:13:05;;;;;;;3.35;1.48;;;;;;;;;;5141469;27;20050;-75
2023/09/03 04:15:32;;;;;;;2.88;1.40;;;;;;;;;;5143438;27;20047;-76
2023/09/03 04:17:58;;;;;;;3.97;1.10;;;;;;;;;;5143736;27;20106;-75
2023/09/03 04:20:25;;;;;;;1.33;0.95;;;;;;;;;;5143451;27;20372;-75
2023/09/03 04:22:53;;;;;;;4.88;1.52;;;;;;;;;;5142752;27;20049;-75
2023/09/03 04:25:20;;;;;;;1.52;0.90;;;;;;;;;;5143194;27;20335;-74
2023/09/03 04:27:46;;;;;;;2.33;1.30;;;;;;;;;;5139852;27;20055;-75
2023/09/03 04:30:13;;;;;;;2.22;1.05;;;;;;;;;;5143248;27;20234;-75
2023/09/03 04:32:40;;;;;;;2.60;1.20;;;;;;;;;;5143151;27;20042;-75
2023/09/03 04:35:07;;;;;;;3.30;1.20;;;;;;;;;;5143275;27;20050;-74
2023/09/03 04:37:34;;;;;;;1.70;1.08;;;;;;;;;;5142621;27;20047;-76
2023/09/03 04:40:00;;;;;;;3.63;1.27;;;;;;;;;;5142891;27;20485;-76
2023/09/03 04:42:27;;;;;;;3.50;1.30;;;;;;;;;;5142941;27;20106;-75
2023/09/03 04:44:54;;;;;;;1.90;1.00;;;;;;;;;;5143080;27;20042;-75
2023/09/03 04:47:21;;;;;;;2.45;1.10;;;;;;;;;;5142650;27;20051;-76
2023/09/03 04:49:47;;;;;;;3.08;1.20;;;;;;;;;;5143156;27;20100;-75
2023/09/03 04:52:14;;;;;;;2.47;1.10;;;;;;;;;;5142803;27;20047;-74
2023/09/03 04:54:41;;;;;;;2.17;1.20;;;;;;;;;;5142398;27;20088;-75
2023/09/03 04:57:10;;;;;;;2.85;1.10;;;;;;;;;;5142521;27;20046;-75
2023/09/03 04:59:37;;;;;;;2.22;1.10;;;;;;;;;;5142507;27;20285;-76
2023/09/03 05:02:03;;;;;;;2.80;1.17;;;;;;;;;;5142256;27;20332;-75
2023/09/03 05:04:30;;;;;;;2.17;1.25;;;;;;;;;;5142569;27;20105;-75
2023/09/03 05:06:57;;;;;;;2.30;1.10;;;;;;;;;;5124433;27;20051;-73
2023/09/03 05:09:24;;;;;;;2.47;1.17;;;;;;;;;;5142138;27;20043;-71
2023/09/03 05:11:50;;;;;;;2.72;1.20;;;;;;;;;;5142078;27;20051;-74
2023/09/03 05:14:17;;;;;;;2.38;1.50;;;;;;;;;;5142630;27;20043;-74
2023/09/03 05:16:44;;;;;;;3.05;1.30;;;;;;;;;;5142548;27;20043;-72
2023/09/03 05:19:14;;;;;;;1.90;1.17;;;;;;;;;;5142028;27;20460;-75
2023/09/03 05:21:42;;;;;;;2.75;1.10;;;;;;;;;;5142341;27;20043;-74
2023/09/03 05:24:10;;;;;;;2.55;1.25;;;;;;;;;;5141963;27;20088;-74
2023/09/03 05:26:36;;;;;;;3.58;1.23;;;;;;;;;;5141984;27;20327;-75
2023/09/03 05:29:03;;;;;;;3.05;1.20;;;;;;;;;;5141973;27;20047;-74
2023/09/03 05:31:30;;;;;;;3.90;1.40;;;;;;;;;;5141744;27;20043;-75
2023/09/03 05:33:57;;;;;;;3.17;1.30;;;;;;;;;;5141762;27;20069;-74
2023/09/03 05:36:24;;;;;;;2.53;1.30;;;;;;;;;;5141943;27;20066;-72
2023/09/03 05:38:50;;;;;;;2.92;1.27;;;;;;;;;;5140575;27;20342;-75
2023/09/03 05:41:17;;;;;;;2.35;1.27;;;;;;;;;;5141376;27;20043;-74
2023/09/03 05:43:44;;;;;;;3.17;1.35;;;;;;;;;;5141667;27;20106;-75
2023/09/03 05:46:10;;;;;;;3.88;1.50;;;;;;;;;;5141667;27;20092;-75
2023/09/03 05:48:37;;;;;;;2.10;1.13;;;;;;;;;;5123324;27;20048;-75
2023/09/03 05:51:03;;;;;;;4.07;1.20;;;;;;;;;;5139167;27;20092;-75
2023/09/03 05:53:31;;;;;;;2.47;1.27;;;;;;;;;;5140844;27;20043;-71
2023/09/03 05:56:10;;;;;;;2.20;1.08;;;;;;;;;;5141372;27;20299;-72
2023/09/03 05:58:37;;;;;;;4.63;1.35;;;;;;;;;;5138500;27;20066;-75
2023/09/03 06:01:04;;;;;;;2.97;1.20;;;;;;;;;;5141607;27;20043;-71
2023/09/03 06:03:31;;;;;;;3.83;1.58;;;;;;;;;;5141031;27;20045;-74
2023/09/03 06:06:06;;;;;;;2.55;1.38;;;;;;;;;;5140977;28;20106;-75
2023/09/03 06:08:35;;;;;;;3.92;1.40;;;;;;;;;;5140912;28;20106;-75
2023/09/03 06:11:03;;;;;;;3.47;1.42;;;;;;;;;;5141216;28;20043;-74
2023/09/03 06:13:32;;;;;;;4.75;1.55;;;;;;;;;;5141000;28;20374;-75
2023/09/03 06:15:59;;;;;;;3.08;1.60;;;;;;;;;;5141314;28;20049;-75
2023/09/03 06:18:26;;;;;;;3.42;1.50;;;;;;;;;;5141050;28;20200;-71
2023/09/03 06:20:53;;;;;;;3.75;1.30;;;;;;;;;;5141315;28;20078;-74
2023/09/03 06:23:21;;;;;;;4.65;1.55;;;;;;;;;;5140614;28;20425;-74
2023/09/03 06:25:50;;;;;;;2.97;1.42;;;;;;;;;;5141261;28;20261;-72
2023/09/03 06:28:17;;;;;;;2.20;1.23;;;;;;;;;;5139496;28;20051;-74
2023/09/03 06:30:43;;;;;;;3.95;1.50;;;;;;;;;;5141670;28;20043;-74
2023/09/03 06:33:11;;;;;;;3.35;1.58;;;;;;;;;;5141254;28;20049;-71
2023/09/03 06:35:38;;;;;;;1.85;1.35;;;;;;;;;;5141278;28;20058;-74
2023/09/03 06:38:05;;;;;;;2.75;1.58;;;;;;;;;;5141166;28;20062;-74
2023/09/03 06:40:31;;;;;;;3.00;1.45;;;;;;;;;;5138662;28;20059;-74
2023/09/03 06:42:58;;;;;;;2.72;1.33;;;;;;;;;;5138480;28;20333;-75
2023/09/03 06:45:26;;;;;;;3.60;1.55;;;;;;;;;;5141235;28;20331;-72
2023/09/03 06:47:52;;;;;;;2.45;1.55;;;;;;;;;;5140997;28;20055;-73
2023/09/03 06:50:19;;;;;;;3.17;1.55;;;;;;;;;;5141775;27;20047;-74
2023/09/03 06:52:46;;;;;;;2.38;1.20;;;;;;;;;;5144318;27;20079;-73
2023/09/03 06:55:14;;;;;;;4.10;1.50;;;;;;;;;;5145394;27;20151;-72
2023/09/03 06:57:44;;;;;;;4.85;1.60;;;;;;;;;;5145107;27;20044;-74
2023/09/03 07:00:11;;;;;;;3.20;2.03;;;;;;;;;;5144761;27;20042;-71
2023/09/03 07:02:38;;;;;;;2.67;1.50;;;;;;;;;;5144093;27;20045;-72
2023/09/03 07:05:04;;;;;;;2.70;1.40;;;;;;;;;;5144846;27;20102;-74
2023/09/03 07:07:31;;;;;;;4.22;1.30;;;;;;;;;;5144669;27;20047;-72
2023/09/03 07:10:00;;;;;;;5.15;1.60;;;;;;;;;;5145087;27;20081;-75
2023/09/03 07:12:26;;;;;;;2.72;1.70;;;;;;;;;;5144696;27;20576;-73
2023/09/03 07:14:53;;;;;;;5.38;1.67;;;;;;;;;;5144557;27;20346;-75
2023/09/03 07:17:20;;;;;;;3.15;1.52;;;;;;;;;;5144669;27;20388;-72
2023/09/03 07:19:46;;;;;;;3.50;1.40;;;;;;;;;;5144628;27;20228;-73
2023/09/03 07:22:13;;;;;;;4.72;1.63;;;;;;;;;;5144621;27;20287;-75
2023/09/03 07:24:40;;;;;;;2.65;1.63;;;;;;;;;;5125944;27;20043;-75
2023/09/03 07:27:06;;;;;;;2.90;1.70;;;;;;;;;;5144352;27;20051;-75
2023/09/03 07:29:33;;;;;;;4.65;1.75;;;;;;;;;;5144481;27;20043;-73
2023/09/03 07:32:00;;;;;;;3.78;1.90;;;;;;;;;;5144768;27;20150;-71
2023/09/03 07:34:26;;;;;;;3.35;1.52;;;;;;;;;;5144138;27;20050;-75
2023/09/03 07:36:53;;;;;;;2.67;1.60;;;;;;;;;;5144115;27;20055;-76
2023/09/03 07:39:19;;;;;;;4.13;1.95;;;;;;;;;;5143597;27;20096;-74
2023/09/03 07:41:46;;;;;;;2.75;1.70;;;;;;;;;;5144200;27;20043;-72
2023/09/03 07:44:13;;;;;;;2.92;1.65;;;;;;;;;;5143914;27;20047;-72
2023/09/03 07:46:39;;;;;;;4.95;1.80;;;;;;;;;;5144335;27;20043;-69
2023/09/03 07:49:06;;;;;;;3.72;1.83;;;;;;;;;;5141402;27;20051;-70
2023/09/03 07:51:33;;;;;;;5.03;1.80;;;;;;;;;;5144199;27;20047;-72
2023/09/03 07:54:00;;;;;;;5.13;1.80;;;;;;;;;;5143398;27;20056;-74
2023/09/03 07:56:27;;;;;;;4.28;1.73;;;;;;;;;;5141188;27;20397;-69
2023/09/03 07:58:53;;;;;;;3.90;1.60;;;;;;;;;;5133664;27;20345;-71
2023/09/03 08:01:20;;;;;;;3.25;1.73;;;;;;;;;;5136718;27;20047;-71
2023/09/03 08:03:47;;;;;;;5.13;1.80;;;;;;;;;;5103889;28;20122;-70
2023/09/03 08:06:14;;;;;;;3.38;1.80;;;;;;;;;;5135198;27;20380;-73
2023/09/03 08:08:40;;;;;;;5.13;1.80;;;;;;;;;;5143425;27;20075;-69
2023/09/03 08:11:07;;;;;;;4.60;1.70;;;;;;;;;;5143826;27;20110;-69
2023/09/03 08:13:34;;;;;;;4.72;1.80;;;;;;;;;;5141015;27;20111;-72
2023/09/03 08:16:02;;;;;;;5.40;1.92;;;;;;;;;;5122836;28;20266;-73
2023/09/03 08:18:29;;;;;;;6.53;1.70;;;;;;;;;;5128346;27;20046;-73
2023/09/03 08:20:57;;;;;;;5.25;1.90;;;;;;;;;;5124320;27;20049;-72
2023/09/03 08:23:23;;;;;;;4.40;2.00;;;;;;;;;;5142947;27;20088;-72
2023/09/03 08:25:50;;;;;;;5.30;2.10;;;;;;;;;;5143115;27;20043;-72
2023/09/03 08:28:17;;;;;;;5.05;2.00;;;;;;;;;;5143552;27;20079;-70
2023/09/03 08:30:43;;;;;;;3.08;1.63;;;;;;;;;;5140524;27;20047;-72
2023/09/03 08:33:10;;;;;;;2.45;1.60;;;;;;;;;;5122694;28;20066;-73
2023/09/03 08:35:37;;;;;;;2.60;1.55;;;;;;;;;;5122730;28;20044;-73
2023/09/03 08:38:04;;;;;;;2.90;1.27;;;;;;;;;;5122132;28;20051;-73
2023/09/03 08:40:32;;;;;;;4.72;1.33;;;;;;;;;;5122240;28;20055;-72
2023/09/03 08:43:02;;;;;;;2.83;1.35;;;;;;;;;;5122881;28;20050;-72
2023/09/03 08:45:32;;;;;;;2.97;1.35;;;;;;;;;;5122144;28;20047;-68
2023/09/03 08:47:59;;;;;;;5.07;1.55;;;;;;;;;;5122152;28;20047;-69
2023/09/03 08:50:28;;;;;;;3.40;1.25;;;;;;;;;;5122296;28;20051;-69
2023/09/03 08:52:56;;;;;;;3.00;1.38;;;;;;;;;;5121899;28;20243;-71
2023/09/03 08:55:24;;;;;;;3.75;1.40;;;;;;;;;;5121946;28;20387;-68
2023/09/03 08:57:54;;;;;;;3.53;1.42;;;;;;;;;;5133464;27;20383;-71
2023/09/03 09:00:21;;;;;;;1.63;1.00;;;;;;;;;;5133148;27;20051;-70
2023/09/03 09:02:48;;;;;;;2.97;1.20;;;;;;;;;;5135000;27;20045;-72
2023/09/03 09:05:15;;;;;;;2.28;1.30;;;;;;;;;;5129537;27;20131;-70
2023/09/03 09:07:42;;;;;;;3.85;1.40;;;;;;;;;;5132837;27;20047;-72
2023/09/03 09:10:13;;;;;;;2.22;1.30;;;;;;;;;;5132757;27;20051;-70
2023/09/03 09:12:50;;;;;;;;;;;;;;;;;;5134594;27;20067;-72
2023/09/03 09:15:17;;;;;;;3.40;1.10;;;;;;;;;;5127283;27;19921;-71
2023/09/03 09:17:44;;;;;;;2.78;1.35;;;;;;;;;;5138382;27;20047;-70
2023/09/03 09:20:13;;;;;;;2.40;1.20;;;;;;;;;;5140091;27;20345;-72
2023/09/03 09:22:40;;;;;;;3.95;1.38;;;;;;;;;;5121230;28;20316;-72
2023/09/03 09:25:07;;;;;;;1.92;1.05;;;;;;;;;;5120901;28;20047;-74
2023/09/03 09:27:38;;;;;;;4.28;1.20;;;;;;;;;;5121618;28;20534;-73
2023/09/03 09:30:13;;;;;;;3.15;1.48;;;;;;;;;;5133853;27;20049;-73
2023/09/03 09:32:41;;;;;;;1.98;1.20;;;;;;;;;;5137418;27;20043;-73
2023/09/03 09:35:09;;;;;;;3.08;1.27;;;;;;;;;;5128428;27;20236;-74
2023/09/03 09:37:40;;;;;;;2.45;1.10;;;;;;;;;;5137649;27;20091;-74
2023/09/03 09:40:08;;;;;;;2.28;1.10;;;;;;;;;;5141432;27;20358;-73
2023/09/03 09:42:51;;;;;;;2.45;1.20;;;;;;;;;;5141635;27;20047;-74
2023/09/03 09:45:18;;;;;;;2.70;1.08;;;;;;;;;;5141300;27;20361;-73
2023/09/03 09:47:49;;;;;;;2.30;1.10;;;;;;;;;;5123033;27;20057;-74
2023/09/03 09:50:31;;;;;;;3.10;1.10;;;;;;;;;;5121121;28;20054;-73
2023/09/03 09:52:58;;;;;;;2.45;1.15;;;;;;;;;;5120645;28;20114;-72
2023/09/03 09:55:25;;;;;;;2.00;1.08;;;;;;;;;;5119798;28;20062;-69
2023/09/03 09:57:51;;;;;;;2.08;0.93;;;;;;;;;;5141182;27;20045;-73
2023/09/03 10:00:41;;;;;;;2.83;1.40;;;;;;;;;;5141217;27;20045;-72
2023/09/03 10:03:11;;;;;;;1.75;1.00;;;;;;;;;;5141247;27;20231;-73
2023/09/03 10:05:38;;;;;;;1.75;1.08;;;;;;;;;;5141335;28;20043;-73
2023/09/03 10:08:05;;;;;;;1.40;1.00;;;;;;;;;;5140602;27;20066;-71
2023/09/03 10:10:34;;;;;;;2.83;1.08;;;;;;;;;;5124462;28;20071;-73
2023/09/03 10:13:02;;;;;;;1.63;0.90;;;;;;;;;;5120549;28;20050;-72
2023/09/03 10:15:30;;;;;;;2.25;1.10;;;;;;;;;;5119969;28;20043;-72
2023/09/03 10:17:59;;;;;;;3.30;1.10;;;;;;;;;;5119914;28;20054;-73
2023/09/03 10:20:28;;;;;;;2.30;0.90;;;;;;;;;;5125053;27;20145;-73
2023/09/03 10:22:56;;;;;;;1.85;0.85;;;;;;;;;;5139376;28;20047;-74
2023/09/03 10:25:28;;;;;;;1.70;0.75;;;;;;;;;;5140240;27;20080;-72
2023/09/03 10:28:03;;;;;;;2.45;1.02;;;;;;;;;;5143959;27;20092;-74
2023/09/03 10:30:34;;;;;;;2.22;1.10;;;;;;;;;;5143794;27;20323;-73
2023/09/03 10:33:02;;;;;;;2.60;1.10;;;;;;;;;;5144029;27;20051;-73
2023/09/03 10:35:28;;;;;;;1.83;1.10;;;;;;;;;;5143431;27;20069;-74
2023/09/03 10:37:55;;;;;;;2.67;0.90;;;;;;;;;;5143015;27;20074;-72
2023/09/03 10:40:28;;;;;;;1.90;1.05;;;;;;;;;;5142961;27;20045;-73
2023/09/03 10:43:22;;;;;;;1.80;0.90;;;;;;;;;;5141830;27;20050;-72
2023/09/03 10:46:06;;;;;;;2.50;1.10;;;;;;;;;;5144216;27;20043;-72
2023/09/03 10:48:37;;;;;;;3.22;1.00;;;;;;;;;;5143502;27;20387;-73
2023/09/03 10:51:04;;;;;;;1.85;1.08;;;;;;;;;;5143643;27;20379;-73
2023/09/03 10:53:43;;;;;;;2.03;1.08;;;;;;;;;;5143299;27;20050;-73
2023/09/03 10:56:18;;;;;;;2.95;1.00;;;;;;;;;;5141278;27;20110;-73
2023/09/03 10:59:00;;;;;;;2.20;1.00;;;;;;;;;;5136644;27;20057;-72
2023/09/03 11:01:33;;;;;;;2.38;1.00;;;;;;;;;;5141119;27;20216;-73
2023/09/03 11:04:02;;;;;;;2.13;1.02;;;;;;;;;;5140236;27;20126;-73
2023/09/03 11:06:34;;;;;;;3.58;1.17;;;;;;;;;;5139736;27;20047;-73
2023/09/03 11:09:01;;;;;;;2.15;1.10;;;;;;;;;;5142037;27;20047;-73
2023/09/03 11:11:28;;;;;;;3.20;1.20;;;;;;;;;;5144737;27;20362;-73
2023/09/03 11:13:57;;;;;;;3.92;1.02;;;;;;;;;;5142200;27;20429;-72
2023/09/03 11:16:31;;;;;;;2.05;1.17;;;;;;;;;;5144302;27;20106;-73
2023/09/03 11:18:59;;;;;;;3.47;1.02;;;;;;;;;;5143468;27;20049;-72
2023/09/03 11:21:26;;;;;;;1.33;0.93;;;;;;;;;;5122611;27;20039;-71
2023/09/03 11:24:16;;;;;;;3.83;1.10;;;;;;;;;;5139803;27;20043;-73
2023/09/03 11:26:43;;;;;;;2.35;1.10;;;;;;;;;;5141350;27;20124;-73
2023/09/03 11:29:21;;;;;;;4.00;1.10;;;;;;;;;;5141593;27;20445;-73
2023/09/03 11:31:49;;;;;;;3.65;1.00;;;;;;;;;;5140418;27;20297;-73
2023/09/03 11:34:17;;;;;;;3.00;1.13;;;;;;;;;;5142441;27;20043;-72
2023/09/03 11:36:45;;;;;;;2.90;1.00;;;;;;;;;;5139208;27;20039;-73
2023/09/03 11:39:16;;;;;;;3.70;1.05;;;;;;;;;;5143033;27;20051;-72
2023/09/03 11:41:44;;;;;;;2.92;1.08;;;;;;;;;;5143817;27;20043;-73
2023/09/03 11:44:14;;;;;;;2.15;1.00;;;;;;;;;;5144068;27;20286;-73
2023/09/03 11:47:04;;;;;;;2.90;1.08;;;;;;;;;;5143187;27;20078;-72
2023/09/03 11:49:30;;;;;;;1.33;0.93;;;;;;;;;;5143986;27;20299;-72
2023/09/03 11:52:13;;;;;;;2.20;1.20;;;;;;;;;;5143531;27;20070;-73
2023/09/03 11:54:41;;;;;;;3.58;0.98;;;;;;;;;;5143677;27;20123;-72
2023/09/03 11:57:11;;;;;;;4.05;1.10;;;;;;;;;;5140249;27;20053;-73
2023/09/03 11:59:38;;;;;;;;;;;;;;;;;;5140909;27;20449;-73
2023/09/03 12:02:05;;;;;;;1.25;0.88;;;;;;;;;;5139420;27;20014;-70
2023/09/03 12:04:34;;;;;;;2.63;1.20;;;;;;;;;;5141964;27;20054;-73
2023/09/03 12:07:00;;;;;;;2.40;1.20;;;;;;;;;;5141545;27;20039;-72
2023/09/03 12:09:27;;;;;;;2.85;1.20;;;;;;;;;;5138102;27;20052;-73
2023/09/03 12:11:54;;;;;;;2.67;1.33;;;;;;;;;;5143149;27;20050;-72
2023/09/03 12:14:30;;;;;;;1.77;1.02;;;;;;;;;;5143063;27;20319;-72
2023/09/03 12:16:57;;;;;;;2.65;1.25;;;;;;;;;;5141820;27;20039;-73
2023/09/03 12:19:24;;;;;;;5.22;1.33;;;;;;;;;;5143291;27;20055;-71
2023/09/03 12:21:51;;;;;;;3.42;1.23;;;;;;;;;;5143271;27;20043;-73
2023/09/03 12:24:27;;;;;;;2.65;1.13;;;;;;;;;;5142947;27;20049;-73
2023/09/03 12:27:04;;;;;;;1.92;1.10;;;;;;;;;;5142762;27;20043;-72
2023/09/03 12:29:36;;;;;;;3.05;1.10;;;;;;;;;;5107065;28;20093;-73
2023/09/03 12:32:17;;;;;;;3.40;1.10;;;;;;;;;;5128389;27;20039;-73
2023/09/03 12:34:49;;;;;;;2.58;1.17;;;;;;;;;;5142942;27;20146;-72
2023/09/03 12:37:16;;;;;;;2.95;1.20;;;;;;;;;;5142666;27;20065;-72
2023/09/03 12:39:42;;;;;;;2.45;1.20;;;;;;;;;;5142335;27;20380;-73
2023/09/03 12:42:10;;;;;;;2.10;1.10;;;;;;;;;;5142964;27;20043;-73
2023/09/03 12:44:40;;;;;;;2.38;1.10;;;;;;;;;;5142625;27;20046;-71
2023/09/03 12:47:09;;;;;;;2.75;1.40;;;;;;;;;;5142503;27;20049;-74
2023/09/03 12:49:35;;;;;;;3.17;1.17;;;;;;;;;;5142386;27;20053;-73
2023/09/03 12:52:02;;;;;;;1.40;1.05;;;;;;;;;;5142897;27;20049;-70
2023/09/03 12:54:29;;;;;;;2.85;1.00;;;;;;;;;;5142151;27;20085;-75
2023/09/03 12:56:56;;;;;;;2.80;1.20;;;;;;;;;;5142739;27;20043;-73
2023/09/03 12:59:23;;;;;;;4.03;1.33;;;;;;;;;;5142466;27;20043;-72
2023/09/03 13:01:49;;;;;;;2.40;1.10;;;;;;;;;;5137507;27;20273;-75
2023/09/03 13:04:16;;;;;;;2.28;1.00;;;;;;;;;;5121881;28;20081;-74
2023/09/03 13:06:43;;;;;;;3.55;1.10;;;;;;;;;;5121744;28;20093;-74
2023/09/03 13:09:10;;;;;;;2.60;1.20;;;;;;;;;;5121183;28;20055;-74
2023/09/03 13:11:37;;;;;;;2.13;0.90;;;;;;;;;;5121861;28;20089;-73
2023/09/03 13:14:05;;;;;;;2.38;1.05;;;;;;;;;;5121563;28;20050;-73
2023/09/03 13:16:32;;;;;;;2.53;1.05;;;;;;;;;;5121409;28;20051;-73
2023/09/03 13:19:00;;;;;;;2.58;1.20;;;;;;;;;;5139468;27;20087;-74
2023/09/03 13:21:29;;;;;;;2.05;1.20;;;;;;;;;;5141826;27;20057;-74
2023/09/03 13:23:56;;;;;;;2.37;1.10;;;;;;;;;;5141540;27;20211;-74
2023/09/03 13:26:22;;;;;;;2.60;1.08;;;;;;;;;;5141974;27;20348;-74
2023/09/03 13:28:49;;;;;;;3.22;1.08;;;;;;;;;;5137056;27;20047;-74
2023/09/03 13:31:21;;;;;;;1.85;1.00;;;;;;;;;;5121316;28;20081;-75
2023/09/03 13:33:48;;;;;;;4.03;1.30;;;;;;;;;;5138921;27;20043;-74
2023/09/03 13:36:15;;;;;;;1.70;1.00;;;;;;;;;;5141290;27;20079;-73
2023/09/03 13:38:42;;;;;;;2.13;0.90;;;;;;;;;;5141399;27;20043;-74
2023/09/03 13:41:09;;;;;;;4.75;0.90;;;;;;;;;;5142007;27;20047;-74
2023/09/03 13:43:36;;;;;;;2.05;1.08;;;;;;;;;;5142141;27;20111;-74
2023/09/03 13:46:03;;;;;;;3.65;1.00;;;;;;;;;;5140192;27;20047;-74
2023/09/03 13:48:30;;;;;;;3.83;1.10;;;;;;;;;;5141403;27;20449;-74
2023/09/03 13:50:56;;;;;;;2.13;0.98;;;;;;;;;;5141715;27;20212;-75
2023/09/03 13:53:23;;;;;;;3.65;1.05;;;;;;;;;;5140939;27;20080;-71
2023/09/03 13:55:51;;;;;;;4.53;1.00;;;;;;;;;;5141421;27;20323;-73
2023/09/03 13:58:17;;;;;;;3.72;1.17;;;;;;;;;;5141696;27;20047;-74
2023/09/03 14:00:45;;;;;;;5.70;1.17;;;;;;;;;;5140654;27;20546;-74
2023/09/03 14:03:12;;;;;;;1.80;1.05;;;;;;;;;;5141088;27;20058;-74
2023/09/03 14:05:39;;;;;;;4.15;1.10;;;;;;;;;;5141733;28;20043;-73
2023/09/03 14:08:06;;;;;;;2.85;1.00;;;;;;;;;;5140966;28;20057;-74
2023/09/03 14:10:33;;;;;;;1.92;1.10;;;;;;;;;;5141382;27;20043;-74
2023/09/03 14:13:00;;;;;;;2.30;0.90;;;;;;;;;;5141276;28;20335;-73
2023/09/03 14:15:26;;;;;;;2.97;1.08;;;;;;;;;;5140999;28;20051;-74
2023/09/03 14:17:54;;;;;;;4.70;1.38;;;;;;;;;;5140976;28;20336;-74
2023/09/03 14:20:20;;;;;;;2.05;1.02;;;;;;;;;;5141597;28;20067;-74
2023/09/03 14:22:48;;;;;;;4.25;1.10;;;;;;;;;;5140442;28;20035;-74
2023/09/03 14:25:15;;;;;;;2.45;1.00;;;;;;;;;;5141093;28;20074;-75
2023/09/03 14:27:41;;;;;;;1.50;0.95;;;;;;;;;;5141346;28;20070;-73
2023/09/03 14:30:09;;;;;;;6.32;1.05;;;;;;;;;;5140371;28;20047;-75
2023/09/03 14:32:35;;;;;;;2.90;1.00;;;;;;;;;;5140855;28;20271;-75
2023/09/03 14:35:02;;;;;;;4.22;1.20;;;;;;;;;;5141259;28;20044;-74
2023/09/03 14:37:29;;;;;;;2.63;1.10;;;;;;;;;;5139935;28;20235;-75
2023/09/03 14:39:55;;;;;;;5.38;1.23;;;;;;;;;;5140193;28;20086;-74
2023/09/03 14:42:22;;;;;;;5.10;1.00;;;;;;;;;;5141236;28;20043;-74
2023/09/03 14:44:49;;;;;;;2.05;1.15;;;;;;;;;;5140671;28;20046;-75
2023/09/03 14:47:17;;;;;;;3.70;1.13;;;;;;;;;;5140568;28;20242;-75
2023/09/03 14:49:44;;;;;;;3.00;1.20;;;;;;;;;;5139157;28;20205;-74
2023/09/03 14:52:11;;;;;;;2.80;1.17;;;;;;;;;;5140622;28;20065;-73